Time;durP1;ratioP1;P1;durP2;ratioP2;P2;SDS_P1;SDS_P2;PMS_P1;PMS_P2;Temp;Humidity;BMP_temperature;BMP_pressure;BME280_temperature;BME280_humidity;BME280_pressure;Samples;Min_cycle;Max_cycle;Signal;HPM_P1;HPM_P2
2021/09/19 00:00:27;;;;;;;16.43;13.73;;;;;;;11.31;99.51;101328.66;2091649;28;20028;-64
2021/09/19 00:01:27;;;;;;;15.63;12.60;;;;;;;11.31;99.06;101328.66;2091771;28;20021;-64
2021/09/19 00:02:28;;;;;;;15.85;13.50;;;;;;;11.30;99.22;101327.81;2091759;28;20481;-64
2021/09/19 00:03:28;;;;;;;13.50;12.10;;;;;;;11.28;99.42;101329.63;2091694;28;20107;-64
2021/09/19 00:04:28;;;;;;;14.63;12.73;;;;;;;11.25;99.22;101327.13;2091754;28;20076;-64
2021/09/19 00:05:29;;;;;;;15.70;13.60;;;;;;;11.25;99.31;101328.91;2091643;28;20524;-64
2021/09/19 00:06:29;;;;;;;13.57;12.17;;;;;;;11.23;99.47;101330.72;2091745;28;20048;-64
2021/09/19 00:07:29;;;;;;;14.27;12.77;;;;;;;11.20;99.48;101327.28;2082826;28;20052;-64
2021/09/19 00:08:30;;;;;;;14.27;12.43;;;;;;;11.20;99.33;101329.91;2082937;28;20021;-64
2021/09/19 00:09:30;;;;;;;14.27;12.80;;;;;;;11.20;99.64;101326.47;2082784;28;20029;-64
2021/09/19 00:10:30;;;;;;;14.03;11.30;;;;;;;11.20;99.81;101327.28;2082861;28;20037;-63
2021/09/19 00:11:31;;;;;;;12.83;10.93;;;;;;;11.19;99.40;101324.78;2091753;28;20033;-63
2021/09/19 00:12:31;;;;;;;13.20;11.93;;;;;;;11.22;99.71;101324.63;2091739;28;20462;-63
2021/09/19 00:13:31;;;;;;;15.50;13.33;;;;;;;11.23;100.00;101326.34;2091630;28;20025;-63
2021/09/19 00:14:34;;;;;;;13.90;12.50;;;;;;;11.24;100.00;101327.19;2091663;28;20017;-63
2021/09/19 00:15:35;;;;;;;16.17;12.40;;;;;;;11.23;99.88;101315.03;2091696;28;20009;-63
2021/09/19 00:16:35;;;;;;;18.73;13.37;;;;;;;11.21;99.78;101322.94;2091595;28;20059;-63
2021/09/19 00:17:36;;;;;;;14.20;12.33;;;;;;;11.20;99.97;101329.91;2090928;28;20024;-63
2021/09/19 00:18:36;;;;;;;14.65;13.10;;;;;;;11.22;99.60;101323.81;2091070;28;20028;-63
2021/09/19 00:19:36;;;;;;;13.07;11.70;;;;;;;11.22;99.96;101324.63;2091646;28;20067;-62
2021/09/19 00:20:39;;;;;;;13.17;11.87;;;;;;;11.21;99.63;101317.72;2091421;28;20024;-63
2021/09/19 00:21:40;;;;;;;17.63;12.93;;;;;;;11.19;99.66;101322.16;2082670;28;20028;-64
2021/09/19 00:22:42;;;;;;;14.80;12.38;;;;;;;11.18;99.60;101323.03;2074523;28;20426;-63
2021/09/19 00:23:42;;;;;;;;;;;;;;;11.18;100.00;101323.03;2083173;28;20040;-63
2021/09/19 00:24:42;;;;;;;12.23;11.02;;;;;;;11.16;99.96;101320.50;2091592;28;19919;-63
2021/09/19 00:25:43;;;;;;;14.73;11.40;;;;;;;11.15;99.56;101312.72;2091494;28;20029;-63
2021/09/19 00:26:43;;;;;;;15.83;12.47;;;;;;;11.13;100.00;101319.75;2091584;28;20032;-63
2021/09/19 00:27:44;;;;;;;13.82;12.43;;;;;;;11.11;99.41;101317.22;2091514;28;20052;-63
2021/09/19 00:28:44;;;;;;;13.87;12.30;;;;;;;11.08;100.00;101318.16;2091479;28;20355;-63
2021/09/19 00:29:44;;;;;;;13.67;12.37;;;;;;;11.07;100.00;101311.25;2091502;28;20108;-63
2021/09/19 00:30:45;;;;;;;15.83;13.67;;;;;;;11.07;99.64;101316.47;2091550;28;20028;-63
2021/09/19 00:31:45;;;;;;;13.67;12.23;;;;;;;11.06;99.60;101314.75;2091481;28;20078;-62
2021/09/19 00:32:45;;;;;;;14.80;13.23;;;;;;;11.04;99.65;101316.59;2091534;28;20044;-63
2021/09/19 00:33:46;;;;;;;15.33;12.53;;;;;;;11.03;100.00;101312.28;2082621;28;20037;-63
2021/09/19 00:34:46;;;;;;;13.80;12.33;;;;;;;11.00;99.61;101312.38;2082570;28;20541;-63
2021/09/19 00:35:46;;;;;;;14.97;12.70;;;;;;;11.01;99.70;101305.38;2090930;28;20024;-64
2021/09/19 00:36:46;;;;;;;13.30;11.90;;;;;;;11.03;100.00;101317.50;2091552;28;20075;-64
2021/09/19 00:37:47;;;;;;;14.70;13.10;;;;;;;11.05;100.00;101315.66;2091540;28;20438;-64
2021/09/19 00:38:47;;;;;;;14.40;12.90;;;;;;;11.05;100.00;101310.44;2091485;28;20033;-64
2021/09/19 00:39:47;;;;;;;17.57;12.93;;;;;;;11.05;100.00;101318.28;2091438;28;20079;-64
2021/09/19 00:40:47;;;;;;;15.03;13.10;;;;;;;11.03;100.00;101312.28;2091414;28;20542;-63
2021/09/19 00:41:48;;;;;;;15.57;13.10;;;;;;;11.01;99.92;101311.47;2091507;28;20496;-64
2021/09/19 00:42:48;;;;;;;14.87;13.17;;;;;;;11.00;100.00;101303.69;2091468;28;20021;-63
2021/09/19 00:43:49;;;;;;;14.83;13.20;;;;;;;11.00;100.00;101307.16;2082551;28;20037;-63
2021/09/19 00:45:00;;;;;;;15.68;12.95;;;;;;;11.01;99.91;101310.59;2082512;28;20029;-63
2021/09/19 00:46:00;;;;;;;14.32;12.95;;;;;;;11.01;100.00;101310.59;2091386;28;20029;-63
2021/09/19 00:47:01;;;;;;;14.97;13.47;;;;;;;11.00;100.00;101309.78;2082525;28;20399;-63
2021/09/19 00:48:01;;;;;;;14.77;12.80;;;;;;;11.02;100.00;101307.94;2074362;28;20033;-63
2021/09/19 00:49:02;;;;;;;13.77;12.40;;;;;;;11.02;100.00;101301.88;2082488;28;20025;-63
2021/09/19 00:50:03;;;;;;;13.82;12.38;;;;;;;11.01;100.00;101315.81;2082462;28;20411;-63
2021/09/19 00:51:04;;;;;;;16.42;13.15;;;;;;;11.01;100.00;101305.38;2082542;28;20052;-63
2021/09/19 00:52:05;;;;;;;15.85;13.10;;;;;;;10.99;99.96;101302.84;2091358;28;20106;-63
2021/09/19 00:53:05;;;;;;;14.65;12.43;;;;;;;11.00;100.00;101301.06;2091282;28;20056;-64
2021/09/19 00:54:06;;;;;;;14.10;12.70;;;;;;;11.00;99.88;101309.78;2091341;28;20029;-63
2021/09/19 00:55:08;;;;;;;15.77;12.98;;;;;;;10.99;100.00;101305.47;2091352;28;20114;-63
2021/09/19 00:56:10;;;;;;;16.27;13.38;;;;;;;10.97;100.00;101302.03;2091467;28;20061;-63
2021/09/19 00:57:12;;;;;;;14.68;12.82;;;;;;;10.97;100.00;101304.66;2082428;28;20175;-64
2021/09/19 00:58:14;;;;;;;13.80;11.75;;;;;;;10.97;100.00;101302.03;2082534;28;20041;-64
2021/09/19 00:59:14;;;;;;;14.20;12.70;;;;;;;10.98;100.00;101303.75;2091286;28;20017;-64
2021/09/19 01:00:18;;;;;;;14.57;13.10;;;;;;;10.98;100.00;101301.13;2091293;28;20029;-63
2021/09/19 01:01:19;;;;;;;14.65;12.98;;;;;;;10.98;100.00;101305.53;2091268;28;20523;-63
2021/09/19 01:02:21;;;;;;;15.52;13.98;;;;;;;10.98;100.00;101302.91;2091245;28;20123;-63
2021/09/19 01:03:21;;;;;;;14.95;13.45;;;;;;;10.96;100.00;101302.97;2091287;28;20055;-63
2021/09/19 01:04:21;;;;;;;15.03;12.77;;;;;;;10.96;100.00;101308.19;2091215;28;20024;-63
2021/09/19 01:05:23;;;;;;;14.68;13.10;;;;;;;10.95;100.00;101301.25;2091228;28;20028;-63
2021/09/19 01:06:23;;;;;;;;;;;;;;;10.93;100.00;101303.06;2090428;28;20021;-63
2021/09/19 01:07:24;;;;;;;13.27;11.95;;;;;;;10.92;99.98;101306.59;2091120;28;19944;-63
2021/09/19 01:08:24;;;;;;;14.05;12.52;;;;;;;10.93;100.00;101305.69;2091224;28;20117;-63
2021/09/19 01:09:25;;;;;;;13.93;12.50;;;;;;;10.93;100.00;101301.31;2091239;28;20033;-63
2021/09/19 01:10:26;;;;;;;16.47;13.07;;;;;;;10.94;100.00;101294.31;2091210;28;20021;-63
2021/09/19 01:11:26;;;;;;;16.00;13.63;;;;;;;10.95;100.00;101301.25;2091189;28;20379;-64
2021/09/19 01:12:27;;;;;;;14.13;12.77;;;;;;;10.94;100.00;101304.75;2082306;28;20085;-63
2021/09/19 01:13:27;;;;;;;15.52;13.88;;;;;;;10.93;99.93;101297.84;2082351;28;20092;-63
2021/09/19 01:14:30;;;;;;;17.23;13.40;;;;;;;10.95;100.00;101301.25;2091218;28;20510;-63
2021/09/19 01:15:32;;;;;;;14.25;12.77;;;;;;;10.94;100.00;101303.00;2091195;28;20501;-63
2021/09/19 01:16:32;;;;;;;14.77;13.38;;;;;;;10.94;100.00;101302.16;2082144;28;20096;-63
2021/09/19 01:17:33;;;;;;;15.70;13.20;;;;;;;10.94;100.00;101309.97;2074025;28;20073;-63
2021/09/19 01:18:34;;;;;;;14.90;13.50;;;;;;;10.94;100.00;101305.63;2082338;28;20029;-63
2021/09/19 01:19:36;;;;;;;15.25;13.45;;;;;;;10.91;100.00;101305.72;2082179;28;20080;-63
2021/09/19 01:20:36;;;;;;;15.45;13.55;;;;;;;10.91;100.00;101304.88;2082148;28;20493;-63
2021/09/19 01:21:37;;;;;;;18.57;14.50;;;;;;;10.90;100.00;101303.16;2091197;28;20032;-63
2021/09/19 01:22:38;;;;;;;15.03;13.43;;;;;;;10.90;100.00;101300.56;2082231;28;20025;-63
2021/09/19 01:23:40;;;;;;;15.00;13.50;;;;;;;10.88;100.00;101310.22;2073957;28;20529;-63
2021/09/19 01:24:41;;;;;;;15.43;13.63;;;;;;;10.86;100.00;101301.59;2074187;28;20021;-63
2021/09/19 01:25:43;;;;;;;13.95;12.55;;;;;;;10.84;100.00;101299.03;2082214;28;20081;-64
2021/09/19 01:26:44;;;;;;;13.32;11.93;;;;;;;10.82;100.00;101293.84;2091085;28;20063;-63
2021/09/19 01:27:46;;;;;;;12.80;11.50;;;;;;;10.84;100.00;101303.41;2091105;28;20020;-63
2021/09/19 01:28:46;;;;;;;14.85;13.25;;;;;;;10.84;100.00;101303.41;2090979;28;20024;-63
2021/09/19 01:29:46;;;;;;;13.33;12.00;;;;;;;10.83;100.00;101299.94;2091042;28;20501;-63
2021/09/19 01:30:47;;;;;;;16.77;13.83;;;;;;;10.82;100.00;101304.28;2091296;28;20031;-63
2021/09/19 01:31:48;;;;;;;13.60;12.20;;;;;;;10.84;100.00;101308.63;2082096;28;20150;-64
2021/09/19 01:32:48;;;;;;;;;;;;;;;10.80;100.00;101303.53;2082782;28;20112;-63
2021/09/19 01:33:49;;;;;;;13.18;11.73;;;;;;;10.81;100.00;101304.34;2091055;28;20285;-63
2021/09/19 01:34:51;;;;;;;11.90;10.70;;;;;;;10.79;100.00;101301.81;2091047;28;20032;-63
2021/09/19 01:35:51;;;;;;;13.02;11.77;;;;;;;10.76;100.00;101294.09;2081997;28;20457;-63
2021/09/19 01:36:52;;;;;;;14.50;12.10;;;;;;;10.75;99.79;101297.63;2082179;28;20025;-64
2021/09/19 01:37:57;;;;;;;12.13;11.00;;;;;;;10.72;100.00;101295.13;2090935;28;20021;-64
2021/09/19 01:38:57;;;;;;;13.63;12.23;;;;;;;10.72;100.00;101295.13;2082027;28;20037;-64
2021/09/19 01:39:57;;;;;;;12.87;11.33;;;;;;;10.72;100.00;101289.88;2082010;28;20044;-64
2021/09/19 01:40:57;;;;;;;12.33;11.13;;;;;;;10.76;100.00;101285.41;2090741;28;20486;-64
2021/09/19 01:41:59;;;;;;;13.13;11.07;;;;;;;10.75;100.00;101292.41;2090872;28;20397;-64
2021/09/19 01:43:00;;;;;;;14.38;12.07;;;;;;;10.77;100.00;101292.31;2090905;28;20029;-64
2021/09/19 01:44:03;;;;;;;13.27;12.05;;;;;;;10.77;100.00;101290.56;2090902;28;20029;-64
2021/09/19 01:45:04;;;;;;;13.05;11.75;;;;;;;10.76;100.00;101281.03;2090857;28;20032;-64
2021/09/19 01:46:05;;;;;;;13.45;12.13;;;;;;;10.75;100.00;101289.78;2090894;28;20389;-64
2021/09/19 01:47:06;;;;;;;15.18;11.80;;;;;;;10.72;100.00;101284.66;2090965;28;20047;-64
2021/09/19 01:48:06;;;;;;;15.02;13.35;;;;;;;10.70;100.00;101286.47;2090873;28;20040;-64
2021/09/19 01:49:08;;;;;;;13.45;12.05;;;;;;;10.71;100.00;101284.72;2090835;28;20028;-64
2021/09/19 01:50:08;;;;;;;;;;;;;;;10.68;100.00;101277.84;2082420;28;20069;-64
2021/09/19 01:51:09;;;;;;;11.88;10.15;;;;;;;10.69;100.00;101279.56;2081967;28;19948;-64
2021/09/19 01:52:09;;;;;;;12.65;11.45;;;;;;;10.70;100.00;101281.25;2090759;28;20461;-64
2021/09/19 01:53:09;;;;;;;12.17;11.07;;;;;;;10.71;100.00;101288.16;2090764;28;20021;-63
2021/09/19 01:54:10;;;;;;;12.67;11.47;;;;;;;10.72;100.00;101279.44;2090876;28;20033;-64
2021/09/19 01:55:10;;;;;;;12.27;11.13;;;;;;;10.72;100.00;101278.59;2090847;28;20037;-64
2021/09/19 01:56:10;;;;;;;13.60;12.27;;;;;;;10.73;100.00;101280.28;2090878;28;20032;-63
2021/09/19 01:57:22;;;;;;;12.93;11.63;;;;;;;10.71;100.00;101280.34;2090227;28;20139;-62
2021/09/19 01:58:23;;;;;;;12.45;11.25;;;;;;;10.72;100.00;101282.06;2090333;28;20498;-63
2021/09/19 01:59:24;;;;;;;13.32;12.15;;;;;;;10.72;100.00;101283.81;2090566;28;20079;-63
2021/09/19 02:00:25;;;;;;;13.07;11.73;;;;;;;10.71;100.00;101277.72;2081875;28;20029;-63
2021/09/19 02:01:28;;;;;;;13.30;12.00;;;;;;;10.68;100.00;101276.09;2073782;28;20479;-63
2021/09/19 02:02:33;;;;;;;12.77;11.57;;;;;;;10.67;100.00;101270.91;2073945;28;20514;-64
2021/09/19 02:03:36;;;;;;;12.30;11.00;;;;;;;10.68;100.00;101275.25;2082409;28;20474;-63
2021/09/19 02:04:39;;;;;;;13.85;12.55;;;;;;;10.69;100.00;101269.13;2090721;28;20017;-63
2021/09/19 02:05:40;;;;;;;12.13;11.02;;;;;;;10.67;100.00;101274.38;2081537;28;20411;-63
2021/09/19 02:06:40;;;;;;;12.30;11.10;;;;;;;10.67;100.00;101270.91;2081904;28;20028;-63
2021/09/19 02:07:40;;;;;;;12.60;10.67;;;;;;;10.66;100.00;101274.44;2090556;28;20041;-63
2021/09/19 02:08:41;;;;;;;12.13;10.83;;;;;;;10.65;100.00;101264.91;2090566;28;20024;-63
2021/09/19 02:09:41;;;;;;;12.97;11.67;;;;;;;10.65;100.00;101268.38;2090556;28;20029;-63
2021/09/19 02:10:41;;;;;;;12.47;11.27;;;;;;;10.63;100.00;101264.09;2090639;28;20043;-63
2021/09/19 02:11:42;;;;;;;12.60;11.40;;;;;;;10.60;100.00;101264.22;2081756;28;20072;-63
2021/09/19 02:12:43;;;;;;;12.30;11.00;;;;;;;10.59;100.00;101270.34;2081908;28;20061;-64
2021/09/19 02:13:45;;;;;;;13.27;11.60;;;;;;;10.55;100.00;101267.84;2090678;28;20028;-63
2021/09/19 02:14:45;;;;;;;12.32;11.05;;;;;;;10.52;100.00;101265.34;2090574;28;20028;-63
2021/09/19 02:15:45;;;;;;;12.27;11.00;;;;;;;10.52;100.00;101267.09;2090642;28;20021;-63
2021/09/19 02:16:45;;;;;;;12.40;10.53;;;;;;;10.51;100.00;101266.25;2090746;28;20017;-63
2021/09/19 02:17:46;;;;;;;12.93;11.67;;;;;;;10.52;100.00;101265.34;2090156;28;20017;-63
2021/09/19 02:18:48;;;;;;;12.60;11.43;;;;;;;10.52;100.00;101260.13;2090707;28;20025;-62
2021/09/19 02:19:48;;;;;;;11.77;10.57;;;;;;;10.52;100.00;101254.06;2090636;28;20070;-62
2021/09/19 02:20:48;;;;;;;12.63;11.43;;;;;;;10.52;100.00;101257.53;2090518;28;20102;-64
2021/09/19 02:21:48;;;;;;;12.30;11.20;;;;;;;10.51;100.00;101255.81;2090614;28;20099;-63
2021/09/19 02:22:49;;;;;;;14.43;12.93;;;;;;;10.52;100.00;101257.53;2089984;28;20454;-63
2021/09/19 02:23:49;;;;;;;11.77;10.60;;;;;;;10.53;100.00;101248.78;2090117;28;20029;-63
2021/09/19 02:24:49;;;;;;;11.97;10.77;;;;;;;10.51;100.00;101250.59;2081775;28;20037;-64
2021/09/19 02:25:50;;;;;;;12.23;11.03;;;;;;;10.49;100.00;101252.41;2081817;28;20037;-64
2021/09/19 02:26:51;;;;;;;15.45;10.73;;;;;;;10.49;100.00;101244.59;2090644;28;20500;-63
2021/09/19 02:27:51;;;;;;;12.90;11.60;;;;;;;10.49;100.00;101247.19;2090641;28;20094;-64
2021/09/19 02:28:51;;;;;;;12.77;11.33;;;;;;;10.50;100.00;101250.66;2090580;28;20033;-63
2021/09/19 02:29:51;;;;;;;12.37;11.17;;;;;;;10.50;100.00;101248.88;2081652;28;20186;-64
2021/09/19 02:30:52;;;;;;;16.67;12.03;;;;;;;10.48;100.00;101248.09;2081773;28;20035;-63
2021/09/19 02:31:52;;;;;;;12.57;11.00;;;;;;;10.49;100.00;101251.53;2090555;28;20036;-63
2021/09/19 02:32:52;;;;;;;13.00;10.70;;;;;;;10.46;100.00;101255.13;2090659;28;20079;-63
2021/09/19 02:33:52;;;;;;;11.40;10.30;;;;;;;10.45;100.00;101249.97;2090599;28;20025;-64
2021/09/19 02:34:53;;;;;;;12.30;11.00;;;;;;;10.43;100.00;101248.22;2081704;28;20432;-64
2021/09/19 02:35:53;;;;;;;12.47;11.17;;;;;;;10.42;100.00;101248.28;2081737;28;20392;-64
2021/09/19 02:36:54;;;;;;;15.97;10.90;;;;;;;10.45;100.00;101257.78;2090425;28;20103;-64
2021/09/19 02:37:54;;;;;;;14.20;11.70;;;;;;;10.45;100.00;101261.25;2081612;28;20025;-64
2021/09/19 02:38:54;;;;;;;13.97;11.77;;;;;;;10.45;100.00;101258.66;2081782;28;20052;-64
2021/09/19 02:39:55;;;;;;;12.63;11.43;;;;;;;10.45;100.00;101256.03;2090436;28;20048;-64
2021/09/19 02:40:55;;;;;;;17.77;12.47;;;;;;;10.45;100.00;101250.81;2090456;28;20039;-64
2021/09/19 02:41:56;;;;;;;12.70;11.33;;;;;;;10.44;100.00;101267.34;2090442;28;20387;-64
2021/09/19 02:42:56;;;;;;;11.80;10.70;;;;;;;10.42;100.00;101263.94;2090529;28;20035;-64
2021/09/19 02:43:57;;;;;;;13.73;12.52;;;;;;;10.40;100.00;101263.16;2090480;28;20028;-64
2021/09/19 02:44:57;;;;;;;12.90;11.67;;;;;;;10.41;100.00;101259.63;2090398;28;20530;-64
2021/09/19 02:45:57;;;;;;;12.43;11.10;;;;;;;10.43;100.00;101253.44;2090444;28;20497;-64
2021/09/19 02:46:58;;;;;;;13.30;11.10;;;;;;;10.43;100.00;101253.44;2090456;28;20504;-64
2021/09/19 02:47:58;;;;;;;11.77;10.47;;;;;;;10.40;100.00;101255.31;2090403;28;20098;-64
2021/09/19 02:48:58;;;;;;;12.33;10.97;;;;;;;10.38;100.00;101249.28;2090419;28;20061;-64
2021/09/19 02:49:58;;;;;;;14.43;10.90;;;;;;;10.39;100.00;101249.25;2081503;28;20112;-63
2021/09/19 02:51:00;;;;;;;12.37;11.27;;;;;;;10.39;100.00;101245.78;2081603;28;20471;-64
2021/09/19 02:52:00;;;;;;;14.23;11.82;;;;;;;10.39;100.00;101240.56;2090402;28;20079;-64
2021/09/19 02:53:00;;;;;;;13.53;10.87;;;;;;;10.37;100.00;101242.38;2090435;28;20064;-64
2021/09/19 02:54:01;;;;;;;11.70;10.63;;;;;;;10.37;100.00;101232.78;2090272;28;20086;-64
2021/09/19 02:55:01;;;;;;;12.43;10.83;;;;;;;10.40;100.00;101237.91;2090380;28;20087;-64
2021/09/19 02:56:01;;;;;;;11.80;10.60;;;;;;;10.41;100.00;101238.75;2081479;28;20037;-64
2021/09/19 02:57:02;;;;;;;12.37;10.60;;;;;;;10.40;100.00;101231.84;2081592;28;20041;-64
2021/09/19 02:58:02;;;;;;;11.83;10.63;;;;;;;10.41;100.00;101233.53;2090336;28;20481;-64
2021/09/19 02:59:02;;;;;;;11.53;10.47;;;;;;;10.40;100.00;101239.66;2090449;28;20100;-64
2021/09/19 03:00:09;;;;;;;10.93;9.93;;;;;;;10.44;100.00;101233.44;2090372;28;20489;-63
2021/09/19 03:01:10;;;;;;;12.90;11.60;;;;;;;10.45;100.00;101237.78;2090297;28;20089;-64
2021/09/19 03:02:10;;;;;;;11.60;10.40;;;;;;;10.45;100.00;101240.38;2089644;28;20025;-64
2021/09/19 03:03:10;;;;;;;11.23;10.03;;;;;;;10.45;100.00;101236.91;2081382;28;20029;-64
2021/09/19 03:04:11;;;;;;;11.47;10.37;;;;;;;10.42;100.00;101230.88;2081520;28;20025;-64
2021/09/19 03:05:12;;;;;;;10.70;9.60;;;;;;;10.42;100.00;101232.63;2090129;28;20033;-64
2021/09/19 03:06:12;;;;;;;14.52;10.43;;;;;;;10.43;100.00;101231.72;2090147;28;20108;-64
2021/09/19 03:07:12;;;;;;;10.17;9.17;;;;;;;10.43;100.00;101236.94;2090238;28;20028;-64
2021/09/19 03:08:12;;;;;;;12.17;11.00;;;;;;;10.44;100.00;101228.22;2090290;28;20020;-64
2021/09/19 03:09:13;;;;;;;12.03;10.93;;;;;;;10.44;100.00;101225.59;2090281;28;20032;-64
2021/09/19 03:10:14;;;;;;;11.43;10.30;;;;;;;10.42;100.00;101224.78;2090231;28;20486;-64
2021/09/19 03:11:14;;;;;;;10.70;9.70;;;;;;;10.42;100.00;101227.41;2081386;28;20033;-64
2021/09/19 03:12:14;;;;;;;12.00;10.57;;;;;;;10.41;100.00;101229.16;2073219;28;20462;-64
2021/09/19 03:13:15;;;;;;;12.77;10.67;;;;;;;10.43;100.00;101236.94;2081342;28;20041;-64
2021/09/19 03:14:15;;;;;;;12.23;10.77;;;;;;;10.44;100.00;101233.44;2090401;28;20025;-64
2021/09/19 03:15:15;;;;;;;12.90;10.13;;;;;;;10.46;100.00;101231.63;2081327;28;20022;-64
2021/09/19 03:16:15;;;;;;;11.80;10.60;;;;;;;10.46;100.00;101234.25;2081476;28;20084;-63
2021/09/19 03:17:16;;;;;;;12.30;11.00;;;;;;;10.48;100.00;101228.97;2090085;28;20032;-63
2021/09/19 03:18:16;;;;;;;12.53;10.97;;;;;;;10.47;100.00;101238.56;2090272;28;20079;-64
2021/09/19 03:19:16;;;;;;;12.00;10.70;;;;;;;10.46;100.00;101236.84;2090193;28;20048;-64
2021/09/19 03:20:17;;;;;;;13.67;10.70;;;;;;;10.47;100.00;101233.34;2081277;28;20131;-64
2021/09/19 03:21:17;;;;;;;11.83;10.73;;;;;;;10.44;100.00;101233.44;2081229;28;20045;-64
2021/09/19 03:22:17;;;;;;;10.97;9.87;;;;;;;10.41;100.00;101239.59;2090211;28;20294;-64
2021/09/19 03:23:18;;;;;;;11.60;10.17;;;;;;;10.41;100.00;101233.53;2090187;28;20038;-64
2021/09/19 03:24:18;;;;;;;11.07;10.07;;;;;;;10.39;100.00;101230.97;2090288;28;20029;-64
2021/09/19 03:25:18;;;;;;;11.93;10.30;;;;;;;10.42;100.00;101230.88;2081223;28;20038;-64
2021/09/19 03:26:18;;;;;;;11.90;10.80;;;;;;;10.42;100.00;101235.22;2081335;28;20099;-64
2021/09/19 03:27:19;;;;;;;11.73;10.60;;;;;;;10.40;100.00;101227.47;2090254;28;20102;-63
2021/09/19 03:28:19;;;;;;;13.00;9.93;;;;;;;10.39;100.00;101230.97;2090170;28;20024;-64
2021/09/19 03:29:20;;;;;;;12.00;10.70;;;;;;;10.41;100.00;101233.53;2089596;28;20024;-64
2021/09/19 03:30:20;;;;;;;12.38;11.07;;;;;;;10.39;100.00;101230.97;2089923;28;20057;-64
2021/09/19 03:31:21;;;;;;;12.37;10.83;;;;;;;10.37;100.00;101227.56;2081257;28;20037;-64
2021/09/19 03:32:21;;;;;;;13.03;10.87;;;;;;;10.36;100.00;101232.81;2081312;28;20029;-64
2021/09/19 03:33:21;;;;;;;11.17;10.03;;;;;;;10.35;100.00;101231.13;2089945;28;20029;-64
2021/09/19 03:34:22;;;;;;;12.23;10.60;;;;;;;10.31;100.00;101233.00;2089969;28;20025;-64
2021/09/19 03:35:22;;;;;;;12.37;11.17;;;;;;;10.31;100.00;101228.63;2081085;28;20017;-64
2021/09/19 03:36:22;;;;;;;11.93;10.20;;;;;;;10.33;100.00;101235.56;2081277;28;20079;-64
2021/09/19 03:37:23;;;;;;;10.85;9.60;;;;;;;10.31;100.00;101239.06;2090119;28;20032;-63
2021/09/19 03:38:23;;;;;;;14.13;10.93;;;;;;;10.32;100.00;101234.72;2081161;28;20410;-63
2021/09/19 03:39:23;;;;;;;15.17;11.50;;;;;;;10.31;100.00;101233.84;2081267;28;20072;-62
2021/09/19 03:40:24;;;;;;;11.33;10.13;;;;;;;10.31;100.00;101233.84;2090003;28;20125;-63
2021/09/19 03:41:24;;;;;;;11.10;10.05;;;;;;;10.31;100.00;101235.63;2090039;28;20031;-63
2021/09/19 03:42:25;;;;;;;11.77;10.67;;;;;;;10.33;100.00;101235.56;2090019;28;20120;-63
2021/09/19 03:43:25;;;;;;;11.02;9.98;;;;;;;10.31;100.00;101228.63;2090060;28;20021;-63
2021/09/19 03:44:26;;;;;;;14.20;10.63;;;;;;;10.30;100.00;101237.38;2090136;28;20024;-63
2021/09/19 03:45:29;;;;;;;12.87;10.03;;;;;;;10.29;100.00;101233.06;2081033;28;20483;-63
2021/09/19 03:46:30;;;;;;;12.68;10.10;;;;;;;10.28;100.00;101231.38;2081544;28;20101;-63
2021/09/19 03:47:30;;;;;;;11.65;10.20;;;;;;;10.28;100.00;101233.97;2089996;28;20032;-63
2021/09/19 03:48:31;;;;;;;12.57;9.73;;;;;;;10.28;100.00;101239.19;2081051;28;20364;-62
2021/09/19 03:49:31;;;;;;;11.90;9.90;;;;;;;10.28;100.00;101233.97;2081218;28;20025;-63
2021/09/19 03:50:32;;;;;;;11.23;10.13;;;;;;;10.28;100.00;101244.41;2090088;28;20024;-63
2021/09/19 03:51:32;;;;;;;10.25;9.20;;;;;;;10.27;100.00;101241.84;2090084;28;20031;-63
2021/09/19 03:52:32;;;;;;;10.47;9.37;;;;;;;10.27;100.00;101241.84;2090058;28;20021;-63
2021/09/19 03:53:33;;;;;;;11.50;10.33;;;;;;;10.25;100.00;101236.69;2089975;28;20046;-63
2021/09/19 03:54:33;;;;;;;11.67;10.53;;;;;;;10.23;100.00;101233.25;2089972;28;20025;-62
2021/09/19 03:55:33;;;;;;;11.83;10.63;;;;;;;10.22;100.00;101236.78;2090087;28;20455;-62
2021/09/19 03:56:34;;;;;;;12.70;10.70;;;;;;;10.22;100.00;101244.59;2081127;28;20013;-63
2021/09/19 03:57:34;;;;;;;13.97;10.70;;;;;;;10.20;100.00;101246.44;2081198;28;20044;-63
2021/09/19 03:58:34;;;;;;;13.03;10.77;;;;;;;10.19;100.00;101242.09;2090101;28;20017;-64
2021/09/19 03:59:34;;;;;;;12.33;11.10;;;;;;;10.21;100.00;101240.31;2089962;28;20029;-63
2021/09/19 04:00:35;;;;;;;11.30;10.20;;;;;;;10.21;100.00;101242.91;2090042;28;20013;-63
2021/09/19 04:01:35;;;;;;;11.33;9.97;;;;;;;10.19;100.00;101242.09;2089958;28;20057;-63
2021/09/19 04:02:35;;;;;;;10.90;9.80;;;;;;;10.20;100.00;101245.56;2089897;28;20091;-63
2021/09/19 04:03:36;;;;;;;10.07;9.03;;;;;;;10.18;100.00;101237.78;2080925;28;20103;-63
2021/09/19 04:04:36;;;;;;;10.77;9.47;;;;;;;10.19;100.00;101244.72;2081047;28;20083;-63
2021/09/19 04:05:37;;;;;;;11.80;9.23;;;;;;;10.17;100.00;101238.72;2080875;28;20026;-63
2021/09/19 04:06:38;;;;;;;;;;;;;;;10.17;100.00;101241.31;2081752;28;20115;-63
2021/09/19 04:07:38;;;;;;;14.15;9.73;;;;;;;10.15;100.00;101241.38;2089859;28;20370;-63
2021/09/19 04:08:39;;;;;;;12.45;9.77;;;;;;;10.15;100.00;101237.91;2089994;28;20025;-64
2021/09/19 04:09:39;;;;;;;11.10;9.60;;;;;;;10.15;100.00;101237.91;2089989;28;20485;-63
2021/09/19 04:10:40;;;;;;;10.70;9.53;;;;;;;10.14;100.00;101246.63;2081063;28;20037;-63
2021/09/19 04:11:40;;;;;;;11.30;10.17;;;;;;;10.13;100.00;101234.50;2081124;28;20020;-63
2021/09/19 04:12:41;;;;;;;12.77;10.33;;;;;;;10.13;100.00;101235.34;2089347;28;20025;-63
2021/09/19 04:13:41;;;;;;;13.95;11.18;;;;;;;10.11;100.00;101238.91;2089355;28;20044;-63
2021/09/19 04:14:42;;;;;;;11.23;10.13;;;;;;;10.09;100.00;101233.75;2090090;28;20025;-63
2021/09/19 04:15:42;;;;;;;10.97;9.93;;;;;;;10.07;100.00;101234.69;2090066;28;20067;-63
2021/09/19 04:16:42;;;;;;;11.97;10.53;;;;;;;10.04;100.00;101231.31;2090233;28;20025;-63
2021/09/19 04:17:42;;;;;;;12.10;9.90;;;;;;;10.05;100.00;101235.63;2090119;28;20033;-63
2021/09/19 04:18:43;;;;;;;10.10;9.10;;;;;;;10.04;100.00;101236.53;2081226;28;20029;-63
2021/09/19 04:19:43;;;;;;;11.03;9.83;;;;;;;10.03;100.00;101234.78;2081145;28;20037;-64
2021/09/19 04:20:44;;;;;;;13.43;9.80;;;;;;;10.05;100.00;101238.22;2089873;28;20067;-63
2021/09/19 04:21:45;;;;;;;10.88;9.77;;;;;;;10.05;100.00;101235.63;2090044;28;20084;-63
2021/09/19 04:22:45;;;;;;;11.67;10.47;;;;;;;10.05;100.00;101233.00;2090076;28;20102;-63
2021/09/19 04:23:45;;;;;;;10.83;9.43;;;;;;;10.04;100.00;101243.47;2089863;28;20425;-64
2021/09/19 04:24:46;;;;;;;10.67;8.33;;;;;;;10.02;100.00;101238.31;2089801;28;20478;-63
2021/09/19 04:25:46;;;;;;;11.53;10.43;;;;;;;10.01;100.00;101236.63;2089718;28;20024;-64
2021/09/19 04:26:46;;;;;;;12.60;10.13;;;;;;;10.02;100.00;101230.50;2089842;28;20017;-63
2021/09/19 04:27:46;;;;;;;10.90;9.57;;;;;;;10.05;100.00;101237.34;2089968;28;20576;-63
2021/09/19 04:28:47;;;;;;;10.97;9.87;;;;;;;10.03;100.00;101240.00;2089912;28;20028;-63
2021/09/19 04:29:47;;;;;;;10.33;9.20;;;;;;;10.02;100.00;101235.72;2089938;28;20035;-63
2021/09/19 04:30:47;;;;;;;10.97;9.87;;;;;;;10.02;100.00;101233.09;2089980;28;20444;-64
2021/09/19 04:31:48;;;;;;;12.60;10.27;;;;;;;10.02;100.00;101238.31;2089901;28;20070;-63
2021/09/19 04:32:48;;;;;;;10.70;9.70;;;;;;;10.04;100.00;101243.47;2080975;28;20068;-63
2021/09/19 04:33:48;;;;;;;10.83;9.80;;;;;;;10.02;100.00;101235.72;2081030;28;20101;-64